Time;durP1;ratioP1;P1;durP2;ratioP2;P2;SDS_P1;SDS_P2;PMS_P1;PMS_P2;Temp;Humidity;BMP_temperature;BMP_pressure;BME280_temperature;BME280_humidity;BME280_pressure;Samples;Min_cycle;Max_cycle;Signal;HPM_P1;HPM_P2
2020/07/23 00:00:09;;;;;;;9.05;8.150002;;;;;;;16.02;74.66992;95241.26;;;;
2020/07/23 00:01:10;;;;;;;9.05;8.150002;;;;;;;16.02;74.66992;95241.26;;;;
2020/07/23 00:02:10;;;;;;;9.05;8.150002;;;;;;;16.02;74.66992;95241.26;;;;
2020/07/23 00:03:11;;;;;;;9.05;8.150002;;;;;;;16.02;74.66992;95241.26;;;;
2020/07/23 00:04:11;;;;;;;9.05;8.150002;;;;;;;16.02;74.66992;95241.26;;;;
2020/07/23 00:05:12;;;;;;;9.05;8.150002;;;;;;;16.02;74.66992;95241.26;;;;
2020/07/23 00:06:12;;;;;;;9.05;8.150002;;;;;;;16.02;74.66992;95241.26;;;;
2020/07/23 00:07:13;;;;;;;9.05;8.150002;;;;;;;16.02;74.66992;95241.26;;;;
2020/07/23 00:08:13;;;;;;;9.05;8.150002;;;;;;;16.02;74.66992;95241.26;;;;
2020/07/23 00:09:14;;;;;;;9.05;8.150002;;;;;;;16.02;74.66992;95241.26;;;;
2020/07/23 00:10:14;;;;;;;9.6;8.549999;;;;;;;15.9;75.375;95246.69;;;;
2020/07/23 00:11:15;;;;;;;9.6;8.549999;;;;;;;15.9;75.375;95246.69;;;;
2020/07/23 00:12:15;;;;;;;9.6;8.549999;;;;;;;15.9;75.375;95246.69;;;;
2020/07/23 00:13:16;;;;;;;9.6;8.549999;;;;;;;15.9;75.375;95246.69;;;;
2020/07/23 00:14:16;;;;;;;9.6;8.549999;;;;;;;15.9;75.375;95246.69;;;;
2020/07/23 00:15:17;;;;;;;9.6;8.549999;;;;;;;15.9;75.375;95246.69;;;;
2020/07/23 00:16:17;;;;;;;9.6;8.549999;;;;;;;15.9;75.375;95246.69;;;;
2020/07/23 00:17:18;;;;;;;9.6;8.549999;;;;;;;15.9;75.375;95246.69;;;;
2020/07/23 00:18:18;;;;;;;9.6;8.549999;;;;;;;15.9;75.375;95246.69;;;;
2020/07/23 00:19:19;;;;;;;9.6;8.549999;;;;;;;15.9;75.375;95246.69;;;;
2020/07/23 00:20:19;;;;;;;9.549999;8.5;;;;;;;15.7;76.37988;95242.81;;;;
2020/07/23 00:21:20;;;;;;;9.549999;8.5;;;;;;;15.7;76.37988;95242.81;;;;
2020/07/23 00:22:20;;;;;;;9.549999;8.5;;;;;;;15.7;76.37988;95242.81;;;;
2020/07/23 00:23:21;;;;;;;9.549999;8.5;;;;;;;15.7;76.37988;95242.81;;;;
2020/07/23 00:24:21;;;;;;;9.549999;8.5;;;;;;;15.7;76.37988;95242.81;;;;
2020/07/23 00:25:22;;;;;;;9.549999;8.5;;;;;;;15.7;76.37988;95242.81;;;;
2020/07/23 00:26:22;;;;;;;9.549999;8.5;;;;;;;15.7;76.37988;95242.81;;;;
2020/07/23 00:27:23;;;;;;;9.549999;8.5;;;;;;;15.7;76.37988;95242.81;;;;
2020/07/23 00:28:23;;;;;;;9.549999;8.5;;;;;;;15.7;76.37988;95242.81;;;;
2020/07/23 00:29:24;;;;;;;9.549999;8.5;;;;;;;15.7;76.37988;95242.81;;;;
2020/07/23 00:30:24;;;;;;;9.549999;8.5;;;;;;;15.7;76.37988;95242.81;;;;
2020/07/23 00:31:25;;;;;;;9.700001;8.699999;;;;;;;15.57;77.4082;95243.34;;;;
2020/07/23 00:32:25;;;;;;;9.700001;8.699999;;;;;;;15.57;77.4082;95243.34;;;;
2020/07/23 00:33:25;;;;;;;9.700001;8.699999;;;;;;;15.57;77.4082;95243.34;;;;
2020/07/23 00:34:26;;;;;;;9.700001;8.699999;;;;;;;15.57;77.4082;95243.34;;;;
2020/07/23 00:35:26;;;;;;;9.700001;8.699999;;;;;;;15.57;77.4082;95243.34;;;;
2020/07/23 00:36:27;;;;;;;9.700001;8.699999;;;;;;;15.57;77.4082;95243.34;;;;
2020/07/23 00:37:27;;;;;;;9.700001;8.699999;;;;;;;15.57;77.4082;95243.34;;;;
2020/07/23 00:38:28;;;;;;;9.700001;8.699999;;;;;;;15.57;77.4082;95243.34;;;;
2020/07/23 00:39:28;;;;;;;9.700001;8.699999;;;;;;;15.57;77.4082;95243.34;;;;
2020/07/23 00:40:29;;;;;;;9.700001;8.699999;;;;;;;15.57;77.4082;95243.34;;;;
2020/07/23 00:41:29;;;;;;;9.6;8.700001;;;;;;;15.57;78.16309;95247.55;;;;
2020/07/23 00:42:30;;;;;;;9.6;8.700001;;;;;;;15.57;78.16309;95247.55;;;;
2020/07/23 00:43:30;;;;;;;9.6;8.700001;;;;;;;15.57;78.16309;95247.55;;;;
2020/07/23 00:44:31;;;;;;;9.6;8.700001;;;;;;;15.57;78.16309;95247.55;;;;
2020/07/23 00:45:31;;;;;;;9.6;8.700001;;;;;;;15.57;78.16309;95247.55;;;;
2020/07/23 00:46:32;;;;;;;9.6;8.700001;;;;;;;15.57;78.16309;95247.55;;;;
2020/07/23 00:47:32;;;;;;;9.6;8.700001;;;;;;;15.57;78.16309;95247.55;;;;
2020/07/23 00:48:33;;;;;;;9.6;8.700001;;;;;;;15.57;78.16309;95247.55;;;;
2020/07/23 00:49:33;;;;;;;9.6;8.700001;;;;;;;15.57;78.16309;95247.55;;;;
2020/07/23 00:50:34;;;;;;;9.6;8.700001;;;;;;;15.57;78.16309;95247.55;;;;
2020/07/23 00:51:34;;;;;;;9.6;8.700001;;;;;;;15.57;78.16309;95247.55;;;;
2020/07/23 00:52:35;;;;;;;10.25;9.050001;;;;;;;15.56;78.85352;95238.56;;;;
2020/07/23 00:53:35;;;;;;;10.25;9.050001;;;;;;;15.56;78.85352;95238.56;;;;
2020/07/23 00:54:35;;;;;;;10.25;9.050001;;;;;;;15.56;78.85352;95238.56;;;;
2020/07/23 00:55:36;;;;;;;10.25;9.050001;;;;;;;15.56;78.85352;95238.56;;;;
2020/07/23 00:56:36;;;;;;;10.25;9.050001;;;;;;;15.56;78.85352;95238.56;;;;
2020/07/23 00:57:37;;;;;;;10.25;9.050001;;;;;;;15.56;78.85352;95238.56;;;;
2020/07/23 00:58:38;;;;;;;10.25;9.050001;;;;;;;15.56;78.85352;95238.56;;;;
2020/07/23 00:59:39;;;;;;;10.25;9.050001;;;;;;;15.56;78.85352;95238.56;;;;
2020/07/23 01:00:39;;;;;;;10.25;9.050001;;;;;;;15.56;78.85352;95238.56;;;;
2020/07/23 01:01:40;;;;;;;10.25;9.050001;;;;;;;15.56;78.85352;95238.56;;;;
2020/07/23 01:02:40;;;;;;;10.4;9.25;;;;;;;15.66;79.72461;95239.54;;;;
2020/07/23 01:03:41;;;;;;;10.4;9.25;;;;;;;15.66;79.72461;95239.54;;;;
2020/07/23 01:04:41;;;;;;;10.4;9.25;;;;;;;15.66;79.72461;95239.54;;;;
2020/07/23 01:05:42;;;;;;;10.4;9.25;;;;;;;15.66;79.72461;95239.54;;;;
2020/07/23 01:06:42;;;;;;;10.4;9.25;;;;;;;15.66;79.72461;95239.54;;;;
2020/07/23 01:07:42;;;;;;;10.4;9.25;;;;;;;15.66;79.72461;95239.54;;;;
2020/07/23 01:08:43;;;;;;;10.4;9.25;;;;;;;15.66;79.72461;95239.54;;;;
2020/07/23 01:09:43;;;;;;;10.4;9.25;;;;;;;15.66;79.72461;95239.54;;;;
2020/07/23 01:10:44;;;;;;;10.4;9.25;;;;;;;15.66;79.72461;95239.54;;;;
2020/07/23 01:11:45;;;;;;;10.4;9.25;;;;;;;15.66;79.72461;95239.54;;;;
2020/07/23 01:12:45;;;;;;;10.4;9.25;;;;;;;15.66;79.72461;95239.54;;;;
2020/07/23 01:13:46;;;;;;;10.45;9.350001;;;;;;;15.91;80.22461;95246.41;;;;
2020/07/23 01:14:46;;;;;;;10.45;9.350001;;;;;;;15.91;80.22461;95246.41;;;;
2020/07/23 01:15:47;;;;;;;10.45;9.350001;;;;;;;15.91;80.22461;95246.41;;;;
2020/07/23 01:16:47;;;;;;;10.45;9.350001;;;;;;;15.91;80.22461;95246.41;;;;
2020/07/23 01:17:48;;;;;;;10.45;9.350001;;;;;;;15.91;80.22461;95246.41;;;;
2020/07/23 01:18:48;;;;;;;10.45;9.350001;;;;;;;15.91;80.22461;95246.41;;;;
2020/07/23 01:19:49;;;;;;;10.45;9.350001;;;;;;;15.91;80.22461;95246.41;;;;
2020/07/23 01:20:49;;;;;;;10.45;9.350001;;;;;;;15.91;80.22461;95246.41;;;;
2020/07/23 01:21:53;;;;;;;10.45;9.350001;;;;;;;15.91;80.22461;95246.41;;;;
2020/07/23 01:22:54;;;;;;;10.45;9.350001;;;;;;;15.91;80.22461;95246.41;;;;
2020/07/23 01:23:54;;;;;;;10.45;9.4;;;;;;;16.16;80.59277;95240.17;;;;
2020/07/23 01:24:55;;;;;;;10.45;9.4;;;;;;;16.16;80.59277;95240.17;;;;
2020/07/23 01:25:55;;;;;;;10.45;9.4;;;;;;;16.16;80.59277;95240.17;;;;
2020/07/23 01:26:56;;;;;;;10.45;9.4;;;;;;;16.16;80.59277;95240.17;;;;
2020/07/23 01:27:56;;;;;;;10.45;9.4;;;;;;;16.16;80.59277;95240.17;;;;
2020/07/23 01:28:57;;;;;;;10.45;9.4;;;;;;;16.16;80.59277;95240.17;;;;
2020/07/23 01:29:57;;;;;;;10.45;9.4;;;;;;;16.16;80.59277;95240.17;;;;
2020/07/23 01:30:58;;;;;;;10.45;9.4;;;;;;;16.16;80.59277;95240.17;;;;
2020/07/23 01:31:58;;;;;;;10.45;9.4;;;;;;;16.16;80.59277;95240.17;;;;
2020/07/23 01:32:59;;;;;;;10.45;9.4;;;;;;;16.16;80.59277;95240.17;;;;
2020/07/23 01:33:59;;;;;;;10.45;9.4;;;;;;;16.16;80.59277;95240.17;;;;
2020/07/23 01:35:00;;;;;;;10.4;9.5;;;;;;;16.32;81.13086;95249.98;;;;
2020/07/23 01:36:00;;;;;;;10.4;9.5;;;;;;;16.32;81.13086;95249.98;;;;
2020/07/23 01:37:00;;;;;;;10.4;9.5;;;;;;;16.32;81.13086;95249.98;;;;
2020/07/23 01:38:01;;;;;;;10.4;9.5;;;;;;;16.32;81.13086;95249.98;;;;
2020/07/23 01:39:01;;;;;;;10.4;9.5;;;;;;;16.32;81.13086;95249.98;;;;
2020/07/23 01:40:02;;;;;;;10.4;9.5;;;;;;;16.32;81.13086;95249.98;;;;
2020/07/23 01:41:02;;;;;;;10.4;9.5;;;;;;;16.32;81.13086;95249.98;;;;
2020/07/23 01:42:03;;;;;;;10.4;9.5;;;;;;;16.32;81.13086;95249.98;;;;
2020/07/23 01:43:03;;;;;;;10.4;9.5;;;;;;;16.32;81.13086;95249.98;;;;
2020/07/23 01:44:04;;;;;;;10.4;9.5;;;;;;;16.32;81.13086;95249.98;;;;
2020/07/23 01:45:04;;;;;;;10.95;9.799999;;;;;;;16.35;81.88281;95249.05;;;;
2020/07/23 01:46:05;;;;;;;10.95;9.799999;;;;;;;16.35;81.88281;95249.05;;;;
2020/07/23 01:47:05;;;;;;;10.95;9.799999;;;;;;;16.35;81.88281;95249.05;;;;
2020/07/23 01:48:06;;;;;;;10.95;9.799999;;;;;;;16.35;81.88281;95249.05;;;;
2020/07/23 01:49:06;;;;;;;10.95;9.799999;;;;;;;16.35;81.88281;95249.05;;;;
2020/07/23 01:50:07;;;;;;;10.95;9.799999;;;;;;;16.35;81.88281;95249.05;;;;
2020/07/23 01:51:07;;;;;;;10.95;9.799999;;;;;;;16.35;81.88281;95249.05;;;;
2020/07/23 01:52:08;;;;;;;10.95;9.799999;;;;;;;16.35;81.88281;95249.05;;;;
2020/07/23 01:53:08;;;;;;;10.95;9.799999;;;;;;;16.35;81.88281;95249.05;;;;
2020/07/23 01:54:09;;;;;;;10.95;9.799999;;;;;;;16.35;81.88281;95249.05;;;;
2020/07/23 01:55:09;;;;;;;10.95;9.799999;;;;;;;16.35;81.88281;95249.05;;;;
2020/07/23 01:56:10;;;;;;;11.65;10.45;;;;;;;16.42;82.70996;95252.15;;;;
2020/07/23 01:57:10;;;;;;;11.65;10.45;;;;;;;16.42;82.70996;95252.15;;;;
2020/07/23 01:58:11;;;;;;;11.65;10.45;;;;;;;16.42;82.70996;95252.15;;;;
2020/07/23 01:59:11;;;;;;;11.65;10.45;;;;;;;16.42;82.70996;95252.15;;;;
2020/07/23 02:00:12;;;;;;;11.65;10.45;;;;;;;16.42;82.70996;95252.15;;;;
2020/07/23 02:01:12;;;;;;;11.65;10.45;;;;;;;16.42;82.70996;95252.15;;;;
2020/07/23 02:02:13;;;;;;;11.65;10.45;;;;;;;16.42;82.70996;95252.15;;;;
2020/07/23 02:03:13;;;;;;;11.65;10.45;;;;;;;16.42;82.70996;95252.15;;;;
2020/07/23 02:04:14;;;;;;;11.65;10.45;;;;;;;16.42;82.70996;95252.15;;;;
2020/07/23 02:05:14;;;;;;;11.65;10.45;;;;;;;16.42;82.70996;95252.15;;;;
2020/07/23 02:06:15;;;;;;;11.7;10.6;;;;;;;16.44;83.3623;95257.78;;;;
2020/07/23 02:07:15;;;;;;;11.7;10.6;;;;;;;16.44;83.3623;95257.78;;;;
2020/07/23 02:08:16;;;;;;;11.7;10.6;;;;;;;16.44;83.3623;95257.78;;;;
2020/07/23 02:09:16;;;;;;;11.7;10.6;;;;;;;16.44;83.3623;95257.78;;;;
2020/07/23 02:10:17;;;;;;;11.7;10.6;;;;;;;16.44;83.3623;95257.78;;;;
2020/07/23 02:11:17;;;;;;;11.7;10.6;;;;;;;16.44;83.3623;95257.78;;;;
2020/07/23 02:12:18;;;;;;;11.7;10.6;;;;;;;16.44;83.3623;95257.78;;;;
2020/07/23 02:13:18;;;;;;;11.7;10.6;;;;;;;16.44;83.3623;95257.78;;;;
2020/07/23 02:14:19;;;;;;;11.7;10.6;;;;;;;16.44;83.3623;95257.78;;;;
2020/07/23 02:15:19;;;;;;;11.7;10.6;;;;;;;16.44;83.3623;95257.78;;;;
2020/07/23 02:16:20;;;;;;;11.7;10.6;;;;;;;16.44;83.3623;95257.78;;;;
2020/07/23 02:17:20;;;;;;;12.65;11.2;;;;;;;16.31;84.26563;95247.96;;;;
2020/07/23 02:18:21;;;;;;;12.65;11.2;;;;;;;16.31;84.26563;95247.96;;;;
2020/07/23 02:19:21;;;;;;;12.65;11.2;;;;;;;16.31;84.26563;95247.96;;;;
2020/07/23 02:20:22;;;;;;;12.65;11.2;;;;;;;16.31;84.26563;95247.96;;;;
2020/07/23 02:21:22;;;;;;;12.65;11.2;;;;;;;16.31;84.26563;95247.96;;;;
2020/07/23 02:22:23;;;;;;;12.65;11.2;;;;;;;16.31;84.26563;95247.96;;;;
2020/07/23 02:23:23;;;;;;;12.65;11.2;;;;;;;16.31;84.26563;95247.96;;;;
2020/07/23 02:24:24;;;;;;;12.65;11.2;;;;;;;16.31;84.26563;95247.96;;;;
2020/07/23 02:25:24;;;;;;;12.65;11.2;;;;;;;16.31;84.26563;95247.96;;;;
2020/07/23 02:26:24;;;;;;;12.65;11.2;;;;;;;16.31;84.26563;95247.96;;;;
2020/07/23 02:27:25;;;;;;;13.65;12.25;;;;;;;16.32;85.1123;95248.08;;;;
2020/07/23 02:28:26;;;;;;;13.65;12.25;;;;;;;16.32;85.1123;95248.08;;;;
2020/07/23 02:29:26;;;;;;;13.65;12.25;;;;;;;16.32;85.1123;95248.08;;;;
2020/07/23 02:30:27;;;;;;;13.65;12.25;;;;;;;16.32;85.1123;95248.08;;;;
2020/07/23 02:31:27;;;;;;;13.65;12.25;;;;;;;16.32;85.1123;95248.08;;;;
2020/07/23 02:32:28;;;;;;;13.65;12.25;;;;;;;16.32;85.1123;95248.08;;;;
2020/07/23 02:33:28;;;;;;;13.65;12.25;;;;;;;16.32;85.1123;95248.08;;;;
2020/07/23 02:34:29;;;;;;;13.65;12.25;;;;;;;16.32;85.1123;95248.08;;;;
2020/07/23 02:35:29;;;;;;;13.65;12.25;;;;;;;16.32;85.1123;95248.08;;;;
2020/07/23 02:36:30;;;;;;;13.65;12.25;;;;;;;16.32;85.1123;95248.08;;;;
2020/07/23 02:37:30;;;;;;;13.65;12.25;;;;;;;16.32;85.1123;95248.08;;;;
2020/07/23 02:38:31;;;;;;;14.55;13.05;;;;;;;16.34;85.87207;95254.08;;;;
2020/07/23 02:39:31;;;;;;;14.55;13.05;;;;;;;16.34;85.87207;95254.08;;;;
2020/07/23 02:40:32;;;;;;;14.55;13.05;;;;;;;16.34;85.87207;95254.08;;;;
2020/07/23 02:41:32;;;;;;;14.55;13.05;;;;;;;16.34;85.87207;95254.08;;;;
2020/07/23 02:42:33;;;;;;;14.55;13.05;;;;;;;16.34;85.87207;95254.08;;;;
2020/07/23 02:43:33;;;;;;;14.55;13.05;;;;;;;16.34;85.87207;95254.08;;;;
2020/07/23 02:44:34;;;;;;;14.55;13.05;;;;;;;16.34;85.87207;95254.08;;;;
2020/07/23 02:45:34;;;;;;;14.55;13.05;;;;;;;16.34;85.87207;95254.08;;;;
2020/07/23 02:46:35;;;;;;;14.55;13.05;;;;;;;16.34;85.87207;95254.08;;;;
2020/07/23 02:47:35;;;;;;;14.55;13.05;;;;;;;16.34;85.87207;95254.08;;;;
2020/07/23 02:48:36;;;;;;;15.55;13.95;;;;;;;16.36;86.72949;95254.63;;;;
2020/07/23 02:49:36;;;;;;;15.55;13.95;;;;;;;16.36;86.72949;95254.63;;;;
2020/07/23 02:50:36;;;;;;;15.55;13.95;;;;;;;16.36;86.72949;95254.63;;;;
2020/07/23 02:51:37;;;;;;;15.55;13.95;;;;;;;16.36;86.72949;95254.63;;;;
2020/07/23 02:52:37;;;;;;;15.55;13.95;;;;;;;16.36;86.72949;95254.63;;;;
2020/07/23 02:53:38;;;;;;;15.55;13.95;;;;;;;16.36;86.72949;95254.63;;;;
2020/07/23 02:54:38;;;;;;;15.55;13.95;;;;;;;16.36;86.72949;95254.63;;;;
2020/07/23 02:55:39;;;;;;;15.55;13.95;;;;;;;16.36;86.72949;95254.63;;;;
2020/07/23 02:56:39;;;;;;;15.55;13.95;;;;;;;16.36;86.72949;95254.63;;;;
2020/07/23 02:57:40;;;;;;;15.55;13.95;;;;;;;16.36;86.72949;95254.63;;;;
2020/07/23 02:58:40;;;;;;;15.55;13.95;;;;;;;16.36;86.72949;95254.63;;;;
2020/07/23 02:59:41;;;;;;;15.9;14.45;;;;;;;16.28;87.39551;95252.44;;;;
2020/07/23 03:00:41;;;;;;;15.9;14.45;;;;;;;16.28;87.39551;95252.44;;;;
2020/07/23 03:01:42;;;;;;;15.9;14.45;;;;;;;16.28;87.39551;95252.44;;;;
2020/07/23 03:02:42;;;;;;;15.9;14.45;;;;;;;16.28;87.39551;95252.44;;;;
2020/07/23 03:03:43;;;;;;;15.9;14.45;;;;;;;16.28;87.39551;95252.44;;;;
2020/07/23 03:04:43;;;;;;;15.9;14.45;;;;;;;16.28;87.39551;95252.44;;;;
2020/07/23 03:05:44;;;;;;;15.9;14.45;;;;;;;16.28;87.39551;95252.44;;;;
2020/07/23 03:06:44;;;;;;;15.9;14.45;;;;;;;16.28;87.39551;95252.44;;;;
2020/07/23 03:07:45;;;;;;;15.9;14.45;;;;;;;16.28;87.39551;95252.44;;;;
2020/07/23 03:08:45;;;;;;;15.9;14.45;;;;;;;16.28;87.39551;95252.44;;;;
2020/07/23 03:09:46;;;;;;;17.35;15.75;;;;;;;16.36;88.03613;95264.29;;;;
2020/07/23 03:10:46;;;;;;;17.35;15.75;;;;;;;16.36;88.03613;95264.29;;;;
2020/07/23 03:11:47;;;;;;;17.35;15.75;;;;;;;16.36;88.03613;95264.29;;;;
2020/07/23 03:12:47;;;;;;;17.35;15.75;;;;;;;16.36;88.03613;95264.29;;;;
2020/07/23 03:13:48;;;;;;;17.35;15.75;;;;;;;16.36;88.03613;95264.29;;;;
2020/07/23 03:14:48;;;;;;;17.35;15.75;;;;;;;16.36;88.03613;95264.29;;;;
2020/07/23 03:15:49;;;;;;;17.35;15.75;;;;;;;16.36;88.03613;95264.29;;;;
2020/07/23 03:16:49;;;;;;;17.35;15.75;;;;;;;16.36;88.03613;95264.29;;;;
2020/07/23 03:17:50;;;;;;;17.35;15.75;;;;;;;16.36;88.03613;95264.29;;;;
2020/07/23 03:18:50;;;;;;;17.35;15.75;;;;;;;16.36;88.03613;95264.29;;;;
2020/07/23 03:19:51;;;;;;;17.35;15.75;;;;;;;16.36;88.03613;95264.29;;;;
2020/07/23 03:20:51;;;;;;;17.3;15.45;;;;;;;16.37;88.77246;95256.25;;;;
2020/07/23 03:21:52;;;;;;;17.3;15.45;;;;;;;16.37;88.77246;95256.25;;;;
2020/07/23 03:22:52;;;;;;;17.3;15.45;;;;;;;16.37;88.77246;95256.25;;;;
2020/07/23 03:23:53;;;;;;;17.3;15.45;;;;;;;16.37;88.77246;95256.25;;;;
2020/07/23 03:24:53;;;;;;;17.3;15.45;;;;;;;16.37;88.77246;95256.25;;;;
2020/07/23 03:25:53;;;;;;;17.3;15.45;;;;;;;16.37;88.77246;95256.25;;;;
2020/07/23 03:26:54;;;;;;;17.3;15.45;;;;;;;16.37;88.77246;95256.25;;;;
2020/07/23 03:27:55;;;;;;;17.3;15.45;;;;;;;16.37;88.77246;95256.25;;;;
2020/07/23 03:28:55;;;;;;;17.3;15.45;;;;;;;16.37;88.77246;95256.25;;;;
2020/07/23 03:29:56;;;;;;;17.3;15.45;;;;;;;16.37;88.77246;95256.25;;;;
2020/07/23 03:30:56;;;;;;;16.95;15.45;;;;;;;16.35;89.30859;95247.53;;;;
2020/07/23 03:31:57;;;;;;;16.95;15.45;;;;;;;16.35;89.30859;95247.53;;;;
2020/07/23 03:32:58;;;;;;;16.95;15.45;;;;;;;16.35;89.30859;95247.53;;;;
2020/07/23 03:33:58;;;;;;;16.95;15.45;;;;;;;16.35;89.30859;95247.53;;;;
2020/07/23 03:34:59;;;;;;;16.95;15.45;;;;;;;16.35;89.30859;95247.53;;;;
2020/07/23 03:35:59;;;;;;;16.95;15.45;;;;;;;16.35;89.30859;95247.53;;;;
2020/07/23 03:37:00;;;;;;;16.95;15.45;;;;;;;16.35;89.30859;95247.53;;;;
2020/07/23 03:38:00;;;;;;;16.95;15.45;;;;;;;16.35;89.30859;95247.53;;;;
2020/07/23 03:39:01;;;;;;;16.95;15.45;;;;;;;16.35;89.30859;95247.53;;;;
2020/07/23 03:40:01;;;;;;;16.95;15.45;;;;;;;16.35;89.30859;95247.53;;;;
2020/07/23 03:41:02;;;;;;;16.95;15.45;;;;;;;16.35;89.30859;95247.53;;;;
2020/07/23 03:42:03;;;;;;;16.05;14.55;;;;;;;16.17;89.8877;95242.24;;;;
2020/07/23 03:43:03;;;;;;;16.05;14.55;;;;;;;16.17;89.8877;95242.24;;;;
2020/07/23 03:44:04;;;;;;;16.05;14.55;;;;;;;16.17;89.8877;95242.24;;;;
2020/07/23 03:45:05;;;;;;;16.05;14.55;;;;;;;16.17;89.8877;95242.24;;;;
2020/07/23 03:46:06;;;;;;;16.05;14.55;;;;;;;16.17;89.8877;95242.24;;;;
2020/07/23 03:47:06;;;;;;;16.05;14.55;;;;;;;16.17;89.8877;95242.24;;;;
2020/07/23 03:48:07;;;;;;;16.05;14.55;;;;;;;16.17;89.8877;95242.24;;;;
2020/07/23 03:49:07;;;;;;;16.05;14.55;;;;;;;16.17;89.8877;95242.24;;;;
2020/07/23 03:50:09;;;;;;;16.05;14.55;;;;;;;16.17;89.8877;95242.24;;;;
2020/07/23 03:51:11;;;;;;;16.05;14.55;;;;;;;16.17;89.8877;95242.24;;;;
2020/07/23 03:52:13;;;;;;;16.45;14.95;;;;;;;16.18;90.62109;95243.44;;;;
2020/07/23 03:53:13;;;;;;;16.45;14.95;;;;;;;16.18;90.62109;95243.44;;;;
2020/07/23 03:54:14;;;;;;;16.45;14.95;;;;;;;16.18;90.62109;95243.44;;;;
2020/07/23 03:55:14;;;;;;;16.45;14.95;;;;;;;16.18;90.62109;95243.44;;;;
2020/07/23 03:56:15;;;;;;;16.45;14.95;;;;;;;16.18;90.62109;95243.44;;;;
2020/07/23 03:57:15;;;;;;;16.45;14.95;;;;;;;16.18;90.62109;95243.44;;;;
2020/07/23 03:58:16;;;;;;;16.45;14.95;;;;;;;16.18;90.62109;95243.44;;;;
2020/07/23 03:59:17;;;;;;;16.45;14.95;;;;;;;16.18;90.62109;95243.44;;;;
2020/07/23 04:00:17;;;;;;;16.45;14.95;;;;;;;16.18;90.62109;95243.44;;;;
2020/07/23 04:01:17;;;;;;;16.45;14.95;;;;;;;16.18;90.62109;95243.44;;;;
2020/07/23 04:02:18;;;;;;;16.45;14.95;;;;;;;16.18;90.62109;95243.44;;;;
2020/07/23 04:03:18;;;;;;;15.4;13.95;;;;;;;16.22;91.1377;95244.01;;;;
2020/07/23 04:04:19;;;;;;;15.4;13.95;;;;;;;16.22;91.1377;95244.01;;;;
2020/07/23 04:05:19;;;;;;;15.4;13.95;;;;;;;16.22;91.1377;95244.01;;;;
2020/07/23 04:06:20;;;;;;;15.4;13.95;;;;;;;16.22;91.1377;95244.01;;;;
2020/07/23 04:07:21;;;;;;;15.4;13.95;;;;;;;16.22;91.1377;95244.01;;;;
2020/07/23 04:08:21;;;;;;;15.4;13.95;;;;;;;16.22;91.1377;95244.01;;;;
2020/07/23 04:09:22;;;;;;;15.4;13.95;;;;;;;16.22;91.1377;95244.01;;;;
2020/07/23 04:10:22;;;;;;;15.4;13.95;;;;;;;16.22;91.1377;95244.01;;;;
2020/07/23 04:11:23;;;;;;;15.4;13.95;;;;;;;16.22;91.1377;95244.01;;;;
2020/07/23 04:12:23;;;;;;;15.4;13.95;;;;;;;16.22;91.1377;95244.01;;;;
2020/07/23 04:13:24;;;;;;;15.3;13.9;;;;;;;16.33;91.48438;95244.29;;;;
2020/07/23 04:14:24;;;;;;;15.3;13.9;;;;;;;16.33;91.48438;95244.29;;;;
2020/07/23 04:15:25;;;;;;;15.3;13.9;;;;;;;16.33;91.48438;95244.29;;;;
2020/07/23 04:16:25;;;;;;;15.3;13.9;;;;;;;16.33;91.48438;95244.29;;;;
2020/07/23 04:17:26;;;;;;;15.3;13.9;;;;;;;16.33;91.48438;95244.29;;;;
2020/07/23 04:18:26;;;;;;;15.3;13.9;;;;;;;16.33;91.48438;95244.29;;;;
2020/07/23 04:19:27;;;;;;;15.3;13.9;;;;;;;16.33;91.48438;95244.29;;;;
2020/07/23 04:20:27;;;;;;;15.3;13.9;;;;;;;16.33;91.48438;95244.29;;;;
2020/07/23 04:21:28;;;;;;;15.3;13.9;;;;;;;16.33;91.48438;95244.29;;;;
2020/07/23 04:22:28;;;;;;;15.3;13.9;;;;;;;16.33;91.48438;95244.29;;;;
2020/07/23 04:23:29;;;;;;;15.3;13.9;;;;;;;16.33;91.48438;95244.29;;;;
2020/07/23 04:24:29;;;;;;;14.85;13.45;;;;;;;16.52;91.70703;95241.3;;;;
2020/07/23 04:25:30;;;;;;;14.85;13.45;;;;;;;16.52;91.70703;95241.3;;;;
2020/07/23 04:26:30;;;;;;;14.85;13.45;;;;;;;16.52;91.70703;95241.3;;;;
2020/07/23 04:27:31;;;;;;;14.85;13.45;;;;;;;16.52;91.70703;95241.3;;;;
2020/07/23 04:28:31;;;;;;;14.85;13.45;;;;;;;16.52;91.70703;95241.3;;;;
2020/07/23 04:29:32;;;;;;;14.85;13.45;;;;;;;16.52;91.70703;95241.3;;;;
2020/07/23 04:30:32;;;;;;;14.85;13.45;;;;;;;16.52;91.70703;95241.3;;;;
2020/07/23 04:31:33;;;;;;;14.85;13.45;;;;;;;16.52;91.70703;95241.3;;;;
2020/07/23 04:32:33;;;;;;;14.85;13.45;;;;;;;16.52;91.70703;95241.3;;;;
2020/07/23 04:33:34;;;;;;;14.85;13.45;;;;;;;16.52;91.70703;95241.3;;;;
2020/07/23 04:34:34;;;;;;;13;11.9;;;;;;;16.95;91.83984;95252.56;;;;
2020/07/23 04:35:35;;;;;;;13;11.9;;;;;;;16.95;91.83984;95252.56;;;;
2020/07/23 04:36:35;;;;;;;13;11.9;;;;;;;16.95;91.83984;95252.56;;;;
2020/07/23 04:37:36;;;;;;;13;11.9;;;;;;;16.95;91.83984;95252.56;;;;
2020/07/23 04:38:36;;;;;;;13;11.9;;;;;;;16.95;91.83984;95252.56;;;;
2020/07/23 04:39:37;;;;;;;13;11.9;;;;;;;16.95;91.83984;95252.56;;;;
2020/07/23 04:40:37;;;;;;;13;11.9;;;;;;;16.95;91.83984;95252.56;;;;
2020/07/23 04:41:37;;;;;;;13;11.9;;;;;;;16.95;91.83984;95252.56;;;;
2020/07/23 04:42:38;;;;;;;13;11.9;;;;;;;16.95;91.83984;95252.56;;;;
2020/07/23 04:43:38;;;;;;;13;11.9;;;;;;;16.95;91.83984;95252.56;;;;
2020/07/23 04:44:39;;;;;;;13;11.9;;;;;;;16.95;91.83984;95252.56;;;;
2020/07/23 04:45:40;;;;;;;11.95;10.75;;;;;;;17.65;90.99902;95259.3;;;;
2020/07/23 04:46:40;;;;;;;11.95;10.75;;;;;;;17.65;90.99902;95259.3;;;;
2020/07/23 04:47:41;;;;;;;11.95;10.75;;;;;;;17.65;90.99902;95259.3;;;;
2020/07/23 04:48:41;;;;;;;11.95;10.75;;;;;;;17.65;90.99902;95259.3;;;;
2020/07/23 04:49:41;;;;;;;11.95;10.75;;;;;;;17.65;90.99902;95259.3;;;;
2020/07/23 04:50:42;;;;;;;11.95;10.75;;;;;;;17.65;90.99902;95259.3;;;;
2020/07/23 04:51:42;;;;;;;11.95;10.75;;;;;;;17.65;90.99902;95259.3;;;;
2020/07/23 04:52:43;;;;;;;11.95;10.75;;;;;;;17.65;90.99902;95259.3;;;;
2020/07/23 04:53:43;;;;;;;11.95;10.75;;;;;;;17.65;90.99902;95259.3;;;;
2020/07/23 04:54:44;;;;;;;11.95;10.75;;;;;;;17.65;90.99902;95259.3;;;;
2020/07/23 04:55:44;;;;;;;11;9.9;;;;;;;18.05;90.40625;95245.96;;;;
2020/07/23 04:56:45;;;;;;;11;9.9;;;;;;;18.05;90.40625;95245.96;;;;
2020/07/23 04:57:45;;;;;;;11;9.9;;;;;;;18.05;90.40625;95245.96;;;;
2020/07/23 04:58:46;;;;;;;11;9.9;;;;;;;18.05;90.40625;95245.96;;;;
2020/07/23 04:59:47;;;;;;;11;9.9;;;;;;;18.05;90.40625;95245.96;;;;
2020/07/23 05:00:47;;;;;;;11;9.9;;;;;;;18.05;90.40625;95245.96;;;;
2020/07/23 05:01:48;;;;;;;11;9.9;;;;;;;18.05;90.40625;95245.96;;;;
2020/07/23 05:02:48;;;;;;;11;9.9;;;;;;;18.05;90.40625;95245.96;;;;
2020/07/23 05:03:49;;;;;;;11;9.9;;;;;;;18.05;90.40625;95245.96;;;;
2020/07/23 05:04:49;;;;;;;11;9.9;;;;;;;18.05;90.40625;95245.96;;;;
2020/07/23 05:05:50;;;;;;;11;9.9;;;;;;;18.05;90.40625;95245.96;;;;
2020/07/23 05:06:50;;;;;;;10.6;9.599999;;;;;;;18.17;90.49805;95249.19;;;;
2020/07/23 05:07:51;;;;;;;10.6;9.599999;;;;;;;18.17;90.49805;95249.19;;;;
2020/07/23 05:08:51;;;;;;;10.6;9.599999;;;;;;;18.17;90.49805;95249.19;;;;
2020/07/23 05:09:52;;;;;;;10.6;9.599999;;;;;;;18.17;90.49805;95249.19;;;;
2020/07/23 05:10:52;;;;;;;10.6;9.599999;;;;;;;18.17;90.49805;95249.19;;;;
2020/07/23 05:11:53;;;;;;;10.6;9.599999;;;;;;;18.17;90.49805;95249.19;;;;
2020/07/23 05:12:53;;;;;;;10.6;9.599999;;;;;;;18.17;90.49805;95249.19;;;;
2020/07/23 05:13:54;;;;;;;10.6;9.599999;;;;;;;18.17;90.49805;95249.19;;;;
2020/07/23 05:14:54;;;;;;;10.6;9.599999;;;;;;;18.17;90.49805;95249.19;;;;
2020/07/23 05:15:55;;;;;;;10.6;9.599999;;;;;;;18.17;90.49805;95249.19;;;;
2020/07/23 05:16:55;;;;;;;10.25;9.299998;;;;;;;18.47;90.16895;95249.39;;;;
2020/07/23 05:17:56;;;;;;;10.25;9.299998;;;;;;;18.47;90.16895;95249.39;;;;
2020/07/23 05:18:56;;;;;;;10.25;9.299998;;;;;;;18.47;90.16895;95249.39;;;;
2020/07/23 05:19:57;;;;;;;10.25;9.299998;;;;;;;18.47;90.16895;95249.39;;;;
2020/07/23 05:20:57;;;;;;;10.25;9.299998;;;;;;;18.47;90.16895;95249.39;;;;
2020/07/23 05:21:58;;;;;;;10.25;9.299998;;;;;;;18.47;90.16895;95249.39;;;;
2020/07/23 05:22:58;;;;;;;10.25;9.299998;;;;;;;18.47;90.16895;95249.39;;;;
2020/07/23 05:23:59;;;;;;;10.25;9.299998;;;;;;;18.47;90.16895;95249.39;;;;
2020/07/23 05:24:59;;;;;;;10.25;9.299998;;;;;;;18.47;90.16895;95249.39;;;;
2020/07/23 05:26:00;;;;;;;10.25;9.299998;;;;;;;18.47;90.16895;95249.39;;;;
2020/07/23 05:27:00;;;;;;;10.25;9.299998;;;;;;;18.47;90.16895;95249.39;;;;
2020/07/23 05:28:00;;;;;;;9.950001;8.999999;;;;;;;18.84;89.625;95255.2;;;;
2020/07/23 05:29:01;;;;;;;9.950001;8.999999;;;;;;;18.84;89.625;95255.2;;;;
2020/07/23 05:30:01;;;;;;;9.950001;8.999999;;;;;;;18.84;89.625;95255.2;;;;
2020/07/23 05:31:02;;;;;;;9.950001;8.999999;;;;;;;18.84;89.625;95255.2;;;;
2020/07/23 05:32:03;;;;;;;9.950001;8.999999;;;;;;;18.84;89.625;95255.2;;;;
2020/07/23 05:33:03;;;;;;;9.950001;8.999999;;;;;;;18.84;89.625;95255.2;;;;